createdAt,value
2022-07-30T00:02:12.158Z,100.00
2022-07-30T00:04:39.930Z,100.00
2022-07-30T00:07:08.000Z,100.00
2022-07-30T00:09:36.234Z,100.00
2022-07-30T00:12:04.719Z,100.00
2022-07-30T00:14:34.770Z,100.00
2022-07-30T00:17:05.199Z,100.00
2022-07-30T00:19:34.532Z,100.00
2022-07-30T00:22:03.676Z,100.00
2022-07-30T00:24:31.456Z,100.00
2022-07-30T00:26:59.819Z,100.00
2022-07-30T00:29:27.922Z,100.00
2022-07-30T00:31:55.698Z,100.00
2022-07-30T00:34:25.119Z,100.00
2022-07-30T00:36:52.917Z,100.00
2022-07-30T00:39:20.706Z,100.00
2022-07-30T00:41:56.849Z,100.00
2022-07-30T00:44:24.648Z,100.00
2022-07-30T00:46:52.773Z,100.00
2022-07-30T00:49:20.977Z,100.00
2022-07-30T00:51:50.638Z,100.00
2022-07-30T00:54:19.331Z,100.00
2022-07-30T00:56:48.031Z,100.00
2022-07-30T00:59:15.992Z,100.00
2022-07-30T01:01:44.287Z,100.00
2022-07-30T01:04:12.447Z,100.00
2022-07-30T01:06:40.652Z,100.00
2022-07-30T01:09:10.162Z,100.00
2022-07-30T01:11:40.524Z,100.00
2022-07-30T01:14:09.974Z,100.00
2022-07-30T01:16:41.642Z,100.00
2022-07-30T01:19:33.650Z,100.00
2022-07-30T01:22:04.621Z,100.00
2022-07-30T01:24:39.082Z,100.00
2022-07-30T01:27:09.668Z,100.00
2022-07-30T01:29:40.259Z,100.00
2022-07-30T01:32:09.877Z,100.00
2022-07-30T01:34:40.250Z,100.00
2022-07-30T01:37:10.470Z,100.00
2022-07-30T01:39:40.285Z,100.00
2022-07-30T01:42:11.042Z,100.00
2022-07-30T01:44:41.742Z,100.00
2022-07-30T01:47:10.490Z,100.00
2022-07-30T01:49:41.585Z,100.00
2022-07-30T01:52:11.218Z,100.00
2022-07-30T01:54:41.465Z,100.00
2022-07-30T01:57:11.290Z,100.00
2022-07-30T01:59:41.338Z,100.00
2022-07-30T02:02:09.163Z,100.00
2022-07-30T02:04:37.237Z,100.00
2022-07-30T02:07:10.032Z,100.00
2022-07-30T02:09:47.345Z,100.00
2022-07-30T02:12:32.162Z,100.00
2022-07-30T02:15:14.919Z,100.00
2022-07-30T02:17:50.231Z,100.00
2022-07-30T02:20:19.339Z,100.00
2022-07-30T02:22:58.021Z,100.00
2022-07-30T02:25:28.069Z,100.00
2022-07-30T02:28:03.312Z,100.00
2022-07-30T02:30:33.676Z,100.00
2022-07-30T02:33:05.874Z,100.00
2022-07-30T02:35:34.789Z,100.00
2022-07-30T02:38:04.196Z,100.00
2022-07-30T02:40:32.305Z,100.00
2022-07-30T02:43:02.223Z,100.00
2022-07-30T02:45:31.790Z,100.00
2022-07-30T02:48:03.074Z,100.00
2022-07-30T02:50:32.773Z,100.00
2022-07-30T02:53:02.083Z,100.00
2022-07-30T02:55:33.456Z,100.00
2022-07-30T02:58:04.960Z,100.00
2022-07-30T03:00:34.069Z,100.00
2022-07-30T03:03:05.779Z,100.00
2022-07-30T03:05:35.057Z,100.00
2022-07-30T03:08:05.360Z,100.00
2022-07-30T03:10:34.815Z,100.00
2022-07-30T03:13:06.898Z,100.00
2022-07-30T03:15:39.367Z,100.00
2022-07-30T03:18:10.309Z,100.00
2022-07-30T03:20:40.413Z,100.00
2022-07-30T03:23:09.974Z,100.00
2022-07-30T03:25:38.442Z,100.00
2022-07-30T03:28:08.890Z,100.00
2022-07-30T03:30:37.513Z,100.00
2022-07-30T03:33:06.855Z,100.00
2022-07-30T03:35:35.809Z,100.00
2022-07-30T03:38:05.992Z,100.00
2022-07-30T03:40:35.232Z,100.00
2022-07-30T03:43:03.683Z,100.00
2022-07-30T03:45:33.590Z,100.00
2022-07-30T03:48:01.362Z,100.00
2022-07-30T03:50:31.909Z,100.00
2022-07-30T03:52:59.913Z,100.00
2022-07-30T03:55:28.114Z,100.00
2022-07-30T03:57:56.206Z,100.00
2022-07-30T04:00:24.510Z,100.00
2022-07-30T04:02:54.372Z,100.00
2022-07-30T04:05:23.132Z,100.00
2022-07-30T04:07:51.040Z,100.00
2022-07-30T04:10:18.841Z,100.00
2022-07-30T04:12:46.869Z,100.00
2022-07-30T04:16:36.999Z,100.00
2022-07-30T04:18:07.037Z,100.00
2022-07-30T04:20:40.721Z,100.00
2022-07-30T04:23:09.849Z,100.00
2022-07-30T04:25:38.309Z,100.00
2022-07-30T04:28:07.268Z,100.00
2022-07-30T04:30:35.710Z,100.00
2022-07-30T04:33:05.752Z,100.00
2022-07-30T04:35:51.347Z,100.00
2022-07-30T04:38:21.053Z,100.00
2022-07-30T04:40:49.497Z,100.00
2022-07-30T04:43:17.784Z,100.00
2022-07-30T04:45:46.049Z,100.00
2022-07-30T04:48:15.158Z,100.00
2022-07-30T04:50:46.593Z,100.00
2022-07-30T04:53:16.698Z,100.00
2022-07-30T04:55:47.883Z,100.00
2022-07-30T04:58:19.764Z,100.00
2022-07-30T05:00:48.361Z,100.00
2022-07-30T05:03:18.663Z,100.00
2022-07-30T05:05:48.135Z,100.00
2022-07-30T05:08:16.366Z,100.00
2022-07-30T05:10:45.659Z,100.00
2022-07-30T05:13:14.483Z,100.00
2022-07-30T05:15:44.652Z,100.00
2022-07-30T05:18:12.894Z,100.00
2022-07-30T05:20:42.225Z,100.00
2022-07-30T05:23:10.006Z,100.00
2022-07-30T05:25:38.131Z,100.00
2022-07-30T05:28:06.252Z,100.00
2022-07-30T05:30:34.017Z,100.00
2022-07-30T05:33:03.616Z,100.00
2022-07-30T05:35:36.699Z,100.00
2022-07-30T05:38:06.261Z,100.00
2022-07-30T05:40:34.126Z,100.00
2022-07-30T05:43:02.059Z,100.00
2022-07-30T05:45:30.391Z,100.00
2022-07-30T05:47:58.161Z,100.00
2022-07-30T05:50:26.401Z,100.00
2022-07-30T05:52:55.970Z,100.00
2022-07-30T05:55:25.114Z,100.00
2022-07-30T05:57:53.058Z,100.00
2022-07-30T06:00:21.030Z,100.00
2022-07-30T06:02:48.837Z,100.00
2022-07-30T06:05:16.739Z,100.00
2022-07-30T06:07:44.941Z,100.00
2022-07-30T06:10:12.702Z,100.00
2022-07-30T06:12:42.438Z,100.00
2022-07-30T06:15:11.594Z,100.00
2022-07-30T06:17:44.037Z,100.00
2022-07-30T06:20:21.465Z,100.00
2022-07-30T06:22:49.390Z,100.00
2022-07-30T06:25:18.739Z,100.00
2022-07-30T06:27:48.870Z,100.00
2022-07-30T06:30:16.700Z,100.00
2022-07-30T06:32:45.698Z,100.00
2022-07-30T06:35:16.916Z,100.00
2022-07-30T06:38:06.726Z,100.00
2022-07-30T06:40:33.417Z,100.00
2022-07-30T06:43:04.104Z,100.00
2022-07-30T06:45:31.957Z,100.00
2022-07-30T06:48:00.970Z,100.00
2022-07-30T06:50:29.043Z,100.00
2022-07-30T06:52:56.773Z,100.00
2022-07-30T06:55:25.561Z,100.00
2022-07-30T06:57:53.386Z,100.00
2022-07-30T07:00:22.457Z,100.00
2022-07-30T07:02:50.570Z,100.00
2022-07-30T07:05:18.817Z,100.00
2022-07-30T07:07:58.283Z,100.00
2022-07-30T07:10:27.336Z,100.00
2022-07-30T07:12:55.685Z,100.00
2022-07-30T07:15:36.281Z,100.00
2022-07-30T07:18:06.846Z,100.00
2022-07-30T07:20:35.776Z,100.00
2022-07-30T07:23:09.369Z,100.00
2022-07-30T07:25:40.731Z,100.00
2022-07-30T07:28:12.237Z,100.00
2022-07-30T07:30:44.263Z,100.00
2022-07-30T07:33:13.319Z,100.00
2022-07-30T07:35:49.658Z,100.00
2022-07-30T07:38:18.723Z,100.00
2022-07-30T07:40:47.272Z,100.00
2022-07-30T07:43:15.552Z,100.00
2022-07-30T07:45:46.301Z,100.00
2022-07-30T07:48:14.226Z,100.00
2022-07-30T07:50:41.981Z,100.00
2022-07-30T07:53:10.294Z,100.00
2022-07-30T07:55:37.997Z,100.00
2022-07-30T07:58:05.830Z,100.00
2022-07-30T08:00:34.184Z,100.00
2022-07-30T08:03:03.378Z,100.00
2022-07-30T08:05:56.838Z,100.00
2022-07-30T08:08:19.365Z,100.00
2022-07-30T08:10:47.635Z,100.00
2022-07-30T08:13:49.256Z,100.00
2022-07-30T08:16:03.800Z,100.00
2022-07-30T08:18:32.880Z,100.00
2022-07-30T08:21:00.637Z,100.00
2022-07-30T08:23:28.873Z,100.00
2022-07-30T08:25:58.203Z,100.00
2022-07-30T08:28:36.525Z,100.00
2022-07-30T08:31:05.184Z,100.00
2022-07-30T08:33:34.424Z,100.00
2022-07-30T08:36:04.397Z,100.00
2022-07-30T08:38:39.265Z,100.00
2022-07-30T08:41:07.556Z,100.00
2022-07-30T08:43:36.481Z,100.00
2022-07-30T08:46:09.755Z,100.00
2022-07-30T08:48:39.336Z,100.00
2022-07-30T08:51:08.342Z,100.00
2022-07-30T08:53:36.846Z,100.00
2022-07-30T08:56:05.537Z,100.00
2022-07-30T08:58:35.464Z,100.00
2022-07-30T09:01:03.769Z,100.00
2022-07-30T09:03:32.603Z,100.00
2022-07-30T09:06:03.886Z,100.00
2022-07-30T09:08:32.341Z,100.00
2022-07-30T09:11:00.350Z,100.00
2022-07-30T09:13:30.876Z,100.00
2022-07-30T09:16:00.021Z,100.00
2022-07-30T09:18:30.110Z,100.00
2022-07-30T09:21:00.379Z,100.00
2022-07-30T09:23:30.053Z,100.00
2022-07-30T09:26:00.525Z,100.00
2022-07-30T09:28:31.061Z,100.00
2022-07-30T09:30:58.995Z,100.00
2022-07-30T09:33:35.710Z,100.00
2022-07-30T09:36:06.788Z,100.00
2022-07-30T09:38:45.751Z,100.00
2022-07-30T09:41:36.227Z,100.00
2022-07-30T09:44:04.952Z,100.00
2022-07-30T09:46:44.963Z,100.00
2022-07-30T09:49:16.917Z,100.00
2022-07-30T09:51:55.755Z,100.00
2022-07-30T09:54:26.944Z,100.00
2022-07-30T09:57:15.959Z,100.00
2022-07-30T09:59:53.906Z,100.00
2022-07-30T10:02:32.048Z,100.00
2022-07-30T10:05:14.136Z,100.00
2022-07-30T10:07:53.158Z,100.00
2022-07-30T10:10:25.794Z,100.00
2022-07-30T10:12:59.085Z,100.00
2022-07-30T10:15:30.732Z,100.00
2022-07-30T10:18:01.284Z,100.00
2022-07-30T10:20:29.949Z,100.00
2022-07-30T10:23:07.753Z,100.00
2022-07-30T10:25:48.946Z,100.00
2022-07-30T10:28:23.253Z,100.00
2022-07-30T10:30:53.277Z,100.00
2022-07-30T10:33:36.700Z,100.00
2022-07-30T10:36:12.064Z,100.00
2022-07-30T10:38:42.928Z,100.00
2022-07-30T10:41:22.367Z,100.00
2022-07-30T10:44:32.450Z,100.00
2022-07-30T10:47:06.576Z,100.00
2022-07-30T10:49:41.217Z,100.00
2022-07-30T10:52:12.307Z,100.00
2022-07-30T10:54:43.089Z,100.00
2022-07-30T10:57:23.038Z,100.00
2022-07-30T11:00:12.005Z,100.00
2022-07-30T11:02:40.445Z,100.00
2022-07-30T11:05:32.060Z,96.04
2022-07-30T11:08:36.149Z,96.59
2022-07-30T11:11:19.865Z,94.07
2022-07-30T11:13:54.626Z,95.72
2022-07-30T11:16:24.372Z,97.69
2022-07-30T11:19:55.946Z,90.48
2022-07-30T11:22:28.204Z,86.56
2022-07-30T11:24:56.563Z,89.76
2022-07-30T11:27:36.672Z,88.37
2022-07-30T11:30:28.445Z,88.47
2022-07-30T11:32:58.428Z,85.95
2022-07-30T11:35:35.290Z,83.73
2022-07-30T11:38:07.089Z,91.34
2022-07-30T11:40:36.841Z,93.38
2022-07-30T11:43:25.609Z,86.38
2022-07-30T11:46:10.528Z,88.03
2022-07-30T11:48:42.857Z,87.22
2022-07-30T11:51:11.537Z,85.95
2022-07-30T11:53:39.365Z,90.55
2022-07-30T11:56:09.422Z,85.99
2022-07-30T11:58:41.780Z,89.27
2022-07-30T12:01:14.267Z,88.61
2022-07-30T12:03:45.132Z,89.45
2022-07-30T12:06:18.030Z,89.93
2022-07-30T12:08:48.471Z,88.20
2022-07-30T12:11:16.616Z,89.33
2022-07-30T12:13:46.243Z,91.58
2022-07-30T12:16:17.199Z,91.66
2022-07-30T12:18:47.355Z,93.13
2022-07-30T12:21:16.758Z,95.34
2022-07-30T12:23:54.349Z,94.63
2022-07-30T12:26:24.617Z,99.08
2022-07-30T12:28:56.041Z,99.81
2022-07-30T12:31:24.437Z,100.00
2022-07-30T12:33:56.243Z,100.00
2022-07-30T12:36:29.415Z,100.00
2022-07-30T12:38:58.095Z,100.00
2022-07-30T12:41:42.538Z,100.00
2022-07-30T12:44:11.012Z,100.00
2022-07-30T12:46:41.327Z,100.00
2022-07-30T12:49:17.495Z,100.00
2022-07-30T12:52:00.517Z,100.00
2022-07-30T12:54:29.722Z,100.00
2022-07-30T12:57:00.344Z,100.00
2022-07-30T12:59:29.234Z,100.00
2022-07-30T13:02:00.280Z,100.00
2022-07-30T13:04:31.850Z,100.00
2022-07-30T13:07:07.999Z,100.00
2022-07-30T13:09:36.995Z,100.00
2022-07-30T13:12:05.545Z,100.00
2022-07-30T13:14:33.682Z,100.00
2022-07-30T13:17:04.010Z,100.00
2022-07-30T13:19:33.675Z,100.00
2022-07-30T13:22:01.378Z,100.00
2022-07-30T13:24:29.442Z,100.00
2022-07-30T13:26:57.437Z,100.00
2022-07-30T13:29:25.377Z,100.00
2022-07-30T13:31:53.598Z,100.00
2022-07-30T13:34:21.567Z,100.00
2022-07-30T13:36:50.693Z,100.00
2022-07-30T13:39:18.843Z,100.00
2022-07-30T13:41:46.662Z,100.00
2022-07-30T13:44:14.436Z,100.00
2022-07-30T13:46:42.535Z,100.00
2022-07-30T13:49:10.710Z,100.00
2022-07-30T13:51:38.929Z,100.00
2022-07-30T13:54:08.612Z,100.00
2022-07-30T13:56:40.732Z,100.00
2022-07-30T13:59:09.329Z,100.00
2022-07-30T14:01:38.154Z,100.00
2022-07-30T14:04:08.367Z,100.00
2022-07-30T14:06:36.686Z,100.00
2022-07-30T14:09:04.841Z,100.00
2022-07-30T14:11:34.365Z,100.00
2022-07-30T14:14:02.606Z,100.00
2022-07-30T14:16:46.098Z,100.00
2022-07-30T14:19:23.061Z,100.00
2022-07-30T14:21:53.885Z,100.00
2022-07-30T14:24:22.417Z,100.00
2022-07-30T14:26:57.398Z,100.00
2022-07-30T14:29:27.324Z,100.00
2022-07-30T14:31:55.345Z,100.00
2022-07-30T14:34:23.161Z,100.00
2022-07-30T14:36:51.580Z,100.00
2022-07-30T14:39:19.376Z,100.00
2022-07-30T14:41:47.149Z,100.00
2022-07-30T14:44:16.875Z,100.00
2022-07-30T14:46:51.423Z,100.00
2022-07-30T14:49:21.151Z,100.00
2022-07-30T14:51:49.029Z,100.00
2022-07-30T14:54:16.919Z,100.00
2022-07-30T14:56:45.110Z,100.00
2022-07-30T14:59:12.917Z,100.00
2022-07-30T15:01:43.726Z,100.00
2022-07-30T15:04:12.468Z,100.00
2022-07-30T15:06:41.700Z,100.00
2022-07-30T15:09:10.404Z,100.00
2022-07-30T15:12:07.708Z,100.00
2022-07-30T15:14:28.276Z,100.00
2022-07-30T15:17:03.543Z,100.00
2022-07-30T15:19:32.238Z,100.00
2022-07-30T15:22:02.194Z,100.00
2022-07-30T15:24:31.050Z,100.00
2022-07-30T15:26:59.080Z,100.00
2022-07-30T15:29:27.242Z,100.00
2022-07-30T15:31:55.234Z,100.00
2022-07-30T15:34:24.327Z,100.00
2022-07-30T15:36:52.638Z,100.00
2022-07-30T15:39:20.378Z,100.00
2022-07-30T15:41:48.160Z,100.00
2022-07-30T15:44:20.405Z,100.00
2022-07-30T15:46:48.778Z,100.00
2022-07-30T15:49:16.568Z,100.00
2022-07-30T15:51:48.640Z,100.00
2022-07-30T15:54:22.296Z,100.00
2022-07-30T15:56:51.752Z,100.00
2022-07-30T15:59:19.617Z,100.00
2022-07-30T16:01:48.223Z,100.00
2022-07-30T16:04:18.396Z,100.00
2022-07-30T16:06:49.336Z,100.00
2022-07-30T16:09:17.866Z,100.00
2022-07-30T16:11:46.793Z,100.00
2022-07-30T16:14:14.812Z,100.00
2022-07-30T16:16:43.289Z,100.00
2022-07-30T16:19:11.388Z,100.00
2022-07-30T16:21:39.125Z,100.00
2022-07-30T16:24:08.736Z,100.00
2022-07-30T16:26:37.231Z,100.00
2022-07-30T16:29:05.241Z,100.00
2022-07-30T16:31:33.387Z,100.00
2022-07-30T16:34:01.500Z,100.00
2022-07-30T16:36:29.484Z,100.00
2022-07-30T16:38:57.603Z,100.00
2022-07-30T16:41:26.709Z,100.00
2022-07-30T16:43:54.473Z,100.00
2022-07-30T16:46:23.760Z,100.00
2022-07-30T16:48:51.652Z,100.00
2022-07-30T16:51:19.731Z,100.00
2022-07-30T16:53:48.569Z,100.00
2022-07-30T16:56:16.476Z,100.00
2022-07-30T16:58:45.744Z,100.00
2022-07-30T17:01:13.862Z,100.00
2022-07-30T17:03:41.949Z,100.00
2022-07-30T17:06:09.860Z,100.00
2022-07-30T17:08:37.965Z,100.00
2022-07-30T17:11:09.482Z,100.00
2022-07-30T17:13:40.359Z,100.00
2022-07-30T17:16:09.685Z,100.00
2022-07-30T17:18:37.458Z,100.00
2022-07-30T17:21:05.513Z,100.00
2022-07-30T17:23:35.958Z,100.00
2022-07-30T17:26:03.800Z,100.00
2022-07-30T17:28:31.986Z,100.00
2022-07-30T17:30:59.754Z,100.00
2022-07-30T17:33:29.094Z,100.00
2022-07-30T17:35:57.277Z,100.00
2022-07-30T17:38:28.048Z,100.00
2022-07-30T17:40:56.021Z,100.00
2022-07-30T17:43:24.222Z,100.00
2022-07-30T17:45:52.589Z,100.00
2022-07-30T17:48:21.722Z,100.00
2022-07-30T17:50:51.375Z,100.00
2022-07-30T17:53:19.191Z,100.00
2022-07-30T17:55:57.401Z,100.00
2022-07-30T17:58:26.812Z,100.00
2022-07-30T18:00:55.747Z,100.00
2022-07-30T18:03:23.620Z,100.00
2022-07-30T18:05:53.461Z,100.00
2022-07-30T18:08:21.226Z,100.00
2022-07-30T18:10:50.075Z,100.00
2022-07-30T18:13:26.888Z,100.00
2022-07-30T18:15:55.308Z,100.00
2022-07-30T18:18:23.428Z,100.00
2022-07-30T18:20:51.237Z,100.00
2022-07-30T18:23:20.467Z,100.00
2022-07-30T18:25:53.323Z,100.00
2022-07-30T18:28:22.429Z,100.00
2022-07-30T18:30:50.613Z,100.00
2022-07-30T18:33:18.978Z,100.00
2022-07-30T18:35:46.714Z,100.00
2022-07-30T18:38:15.007Z,100.00
2022-07-30T18:40:45.014Z,100.00
2022-07-30T18:43:13.099Z,100.00
2022-07-30T18:45:40.926Z,100.00
2022-07-30T18:48:09.424Z,100.00
2022-07-30T18:50:37.186Z,100.00
2022-07-30T18:53:15.068Z,100.00
2022-07-30T18:55:45.889Z,100.00
2022-07-30T18:58:13.673Z,100.00
2022-07-30T19:00:43.861Z,100.00
2022-07-30T19:03:16.439Z,100.00
2022-07-30T19:05:46.570Z,100.00
2022-07-30T19:08:14.949Z,100.00
2022-07-30T19:10:43.690Z,100.00
2022-07-30T19:13:12.849Z,100.00
2022-07-30T19:15:41.054Z,100.00
2022-07-30T19:18:10.213Z,100.00
2022-07-30T19:20:38.069Z,100.00
2022-07-30T19:23:07.642Z,100.00
2022-07-30T19:25:39.145Z,100.00
2022-07-30T19:28:07.287Z,100.00
2022-07-30T19:30:36.701Z,100.00
2022-07-30T19:33:05.714Z,100.00
2022-07-30T19:35:34.267Z,100.00
2022-07-30T19:38:02.101Z,100.00
2022-07-30T19:40:30.518Z,100.00
2022-07-30T19:43:01.944Z,100.00
2022-07-30T19:45:47.793Z,100.00
2022-07-30T19:48:28.904Z,100.00
2022-07-30T19:50:58.165Z,100.00
2022-07-30T19:53:27.907Z,100.00
2022-07-30T19:56:01.531Z,100.00
2022-07-30T19:58:30.182Z,100.00
2022-07-30T20:00:59.486Z,100.00
2022-07-30T20:03:31.947Z,100.00
2022-07-30T20:06:00.722Z,100.00
2022-07-30T20:08:28.846Z,100.00
2022-07-30T20:10:57.750Z,100.00
2022-07-30T20:13:45.139Z,100.00
2022-07-30T20:16:15.752Z,100.00
2022-07-30T20:18:46.288Z,100.00
2022-07-30T20:21:16.061Z,100.00
2022-07-30T20:23:45.451Z,100.00
2022-07-30T20:26:15.838Z,100.00
2022-07-30T20:28:45.020Z,100.00
2022-07-30T20:31:15.814Z,100.00
2022-07-30T20:33:49.495Z,100.00
2022-07-30T20:36:19.573Z,100.00
2022-07-30T20:38:47.789Z,100.00
2022-07-30T20:41:15.878Z,100.00
2022-07-30T20:43:45.995Z,100.00
2022-07-30T20:46:23.293Z,100.00
2022-07-30T20:48:51.963Z,100.00
2022-07-30T20:51:20.229Z,100.00
2022-07-30T20:53:49.390Z,100.00
2022-07-30T20:56:19.469Z,100.00
2022-07-30T20:58:48.180Z,100.00
2022-07-30T21:01:17.727Z,100.00
2022-07-30T21:03:48.757Z,100.00
2022-07-30T21:06:16.740Z,100.00
2022-07-30T21:08:44.555Z,100.00
2022-07-30T21:11:12.933Z,100.00
2022-07-30T21:13:42.368Z,100.00
2022-07-30T21:16:15.627Z,100.00
2022-07-30T21:18:49.913Z,100.00
2022-07-30T21:21:38.204Z,100.00
2022-07-30T21:24:11.562Z,100.00
2022-07-30T21:26:40.814Z,100.00
2022-07-30T21:29:09.591Z,100.00
2022-07-30T21:32:01.801Z,100.00
2022-07-30T21:34:28.098Z,100.00
2022-07-30T21:36:58.923Z,100.00
2022-07-30T21:39:28.779Z,100.00
2022-07-30T21:41:57.291Z,100.00
2022-07-30T21:44:25.358Z,100.00
2022-07-30T21:46:55.444Z,100.00
2022-07-30T21:49:23.895Z,100.00
2022-07-30T21:51:51.658Z,100.00
2022-07-30T21:54:28.741Z,100.00
2022-07-30T21:56:58.252Z,100.00
2022-07-30T21:59:27.837Z,100.00
2022-07-30T22:01:55.909Z,100.00
2022-07-30T22:04:24.180Z,100.00
2022-07-30T22:06:55.258Z,100.00
2022-07-30T22:09:33.977Z,100.00
2022-07-30T22:12:06.427Z,100.00
2022-07-30T22:14:39.096Z,100.00
2022-07-30T22:17:22.416Z,100.00
2022-07-30T22:19:51.469Z,100.00
2022-07-30T22:22:27.450Z,100.00
2022-07-30T22:24:59.924Z,100.00
2022-07-30T22:27:55.913Z,100.00
2022-07-30T22:30:26.639Z,100.00
2022-07-30T22:32:54.870Z,100.00
2022-07-30T22:35:32.497Z,100.00
2022-07-30T22:38:03.253Z,100.00
2022-07-30T22:40:33.104Z,100.00
2022-07-30T22:43:07.571Z,100.00
2022-07-30T22:45:47.383Z,100.00
2022-07-30T22:48:20.142Z,100.00
2022-07-30T22:50:55.514Z,100.00
2022-07-30T22:54:10.682Z,100.00
2022-07-30T22:56:15.551Z,100.00
2022-07-30T22:58:43.581Z,100.00
2022-07-30T23:01:11.301Z,100.00
2022-07-30T23:03:39.396Z,100.00
2022-07-30T23:06:14.468Z,100.00
2022-07-30T23:08:42.722Z,100.00
2022-07-30T23:11:10.465Z,100.00
2022-07-30T23:13:39.672Z,100.00
2022-07-30T23:16:07.750Z,100.00
2022-07-30T23:18:35.828Z,100.00
2022-07-30T23:21:04.739Z,100.00
2022-07-30T23:23:34.057Z,100.00
2022-07-30T23:26:02.992Z,100.00
2022-07-30T23:28:31.144Z,100.00
2022-07-30T23:31:01.025Z,100.00
2022-07-30T23:33:28.835Z,100.00
2022-07-30T23:35:56.818Z,100.00
2022-07-30T23:38:25.224Z,100.00
2022-07-30T23:40:53.168Z,100.00
2022-07-30T23:43:21.125Z,100.00
2022-07-30T23:45:49.516Z,100.00
2022-07-30T23:48:18.814Z,100.00
2022-07-30T23:50:46.567Z,100.00
2022-07-30T23:53:14.684Z,100.00
2022-07-30T23:55:42.459Z,100.00
2022-07-30T23:58:10.293Z,100.00
